createdAt,value
2023-04-23T00:11:50.646Z,12.26
2023-04-23T00:26:03.301Z,12.24
2023-04-23T00:40:16.131Z,12.18
2023-04-23T00:54:29.399Z,12.08
2023-04-23T01:08:44.054Z,11.99
2023-04-23T01:22:55.112Z,11.96
2023-04-23T01:37:07.973Z,11.93
2023-04-23T01:51:21.163Z,11.89
2023-04-23T02:05:34.727Z,11.85
2023-04-23T02:19:46.736Z,11.79
2023-04-23T02:34:00.267Z,11.73
2023-04-23T02:48:12.737Z,11.66
2023-04-23T03:02:25.896Z,11.64
2023-04-23T03:16:38.957Z,11.65
2023-04-23T03:30:51.736Z,11.61
2023-04-23T03:45:04.915Z,11.54
2023-04-23T03:59:17.564Z,11.45
2023-04-23T04:13:30.005Z,11.24
2023-04-23T04:27:43.015Z,11.17
2023-04-23T04:41:56.419Z,11.11
2023-04-23T04:56:08.256Z,10.93
2023-04-23T05:10:20.662Z,10.82
2023-04-23T05:24:33.257Z,10.59
2023-04-23T05:38:46.604Z,10.4
2023-04-23T05:52:59.069Z,10.39
2023-04-23T06:07:10.299Z,10.58
2023-04-23T06:21:24.113Z,10.88
2023-04-23T06:35:38.352Z,11.74
2023-04-23T06:38:09.810Z,11.83
2023-04-23T06:49:55.799Z,12.48
2023-04-23T06:58:21.472Z,12.59
2023-04-23T06:59:23.788Z,12.61
2023-04-23T07:00:27.875Z,12.67
2023-04-23T07:01:30.202Z,12.73
2023-04-23T07:02:32.655Z,12.78
2023-04-23T07:03:35.137Z,12.82
2023-04-23T07:04:08.995Z,12.74
2023-04-23T07:18:24.013Z,13.12
2023-04-23T07:32:38.374Z,13.60
2023-04-23T07:34:17.735Z,13.80
2023-04-23T07:35:20.413Z,13.85
2023-04-23T07:36:22.716Z,13.92
2023-04-23T07:37:25.320Z,14.01
2023-04-23T07:38:29.234Z,14.05
2023-04-23T07:39:31.576Z,14.12
2023-04-23T07:40:34.083Z,14.19
2023-04-23T07:41:38.110Z,14.22
2023-04-23T07:42:42.014Z,14.26
2023-04-23T07:43:45.936Z,14.31
2023-04-23T07:44:48.351Z,14.35
2023-04-23T07:45:50.711Z,14.37
2023-04-23T07:46:53.077Z,14.43
2023-04-23T07:47:55.600Z,14.44
2023-04-23T07:48:57.963Z,14.47
2023-04-23T07:50:01.949Z,14.48
2023-04-23T07:51:04.316Z,14.54
2023-04-23T07:52:06.771Z,14.56
2023-04-23T07:53:09.184Z,14.63
2023-04-23T07:54:13.288Z,14.64
2023-04-23T07:55:17.187Z,14.73
2023-04-23T07:56:19.559Z,14.78
2023-04-23T07:57:22.236Z,14.81
2023-04-23T07:58:24.621Z,14.85
2023-04-23T07:59:27.056Z,14.89
2023-04-23T08:00:29.749Z,14.93
2023-04-23T08:01:32.316Z,14.95
2023-04-23T08:02:34.668Z,14.98
2023-04-23T08:03:37.286Z,14.94
2023-04-23T08:04:39.751Z,14.92
2023-04-23T08:05:43.818Z,14.91
2023-04-23T08:06:47.659Z,14.92
2023-04-23T08:07:50.068Z,14.91
2023-04-23T08:08:52.366Z,14.92
2023-04-23T08:10:58.837Z,14.93
2023-04-23T08:12:01.308Z,14.94
2023-04-23T08:13:05.640Z,14.95
2023-04-23T08:14:09.526Z,14.97
2023-04-23T08:15:11.866Z,14.98
2023-04-23T08:19:23.203Z,14.99
2023-04-23T08:20:25.692Z,14.98
2023-04-23T08:21:28.096Z,15.00
2023-04-23T08:22:30.598Z,14.96
2023-04-23T08:23:34.610Z,14.99
2023-04-23T08:24:36.877Z,15.01
2023-04-23T08:25:40.910Z,15.07
2023-04-23T08:26:43.354Z,15.10
2023-04-23T08:27:47.393Z,15.12
2023-04-23T08:28:51.299Z,15.16
2023-04-23T08:29:55.289Z,15.13
2023-04-23T08:30:59.197Z,15.19
2023-04-23T08:32:01.476Z,15.23
2023-04-23T08:33:03.992Z,15.25
2023-04-23T08:35:10.408Z,15.28
2023-04-23T08:36:12.600Z,15.23
2023-04-23T08:37:23.443Z,15.26
2023-04-23T08:38:19.134Z,15.27
2023-04-23T08:39:21.503Z,15.30
2023-04-23T08:40:25.557Z,15.32
2023-04-23T08:41:29.436Z,15.34
2023-04-23T08:42:31.840Z,15.37
2023-04-23T08:43:35.784Z,15.41
2023-04-23T08:44:39.741Z,15.42
2023-04-23T08:45:42.070Z,15.44
2023-04-23T08:46:46.144Z,15.49
2023-04-23T08:47:48.426Z,15.47
2023-04-23T08:50:58.753Z,15.50
2023-04-23T08:52:01.199Z,15.53
2023-04-23T08:53:03.692Z,15.54
2023-04-23T08:55:08.583Z,15.58
2023-04-23T08:56:11.004Z,15.57
2023-04-23T08:58:17.523Z,15.59
2023-04-23T08:59:21.437Z,15.62
2023-04-23T09:00:25.339Z,15.67
2023-04-23T09:01:27.670Z,15.69
2023-04-23T09:02:30.165Z,15.74
2023-04-23T09:03:32.691Z,15.80
2023-04-23T09:04:35.091Z,15.83
2023-04-23T09:05:37.540Z,15.88
2023-04-23T09:06:41.616Z,15.90
2023-04-23T09:07:44.202Z,15.99
2023-04-23T09:08:46.663Z,16.05
2023-04-23T09:09:49.054Z,16.07
2023-04-23T09:10:51.550Z,16.11
2023-04-23T09:11:55.572Z,16.10
2023-04-23T09:14:01.972Z,16.12
2023-04-23T09:15:04.364Z,16.14
2023-04-23T09:16:06.756Z,16.20
2023-04-23T09:17:10.838Z,16.24
2023-04-23T09:18:13.083Z,16.30
2023-04-23T09:19:15.625Z,16.34
2023-04-23T09:20:19.666Z,16.40
2023-04-23T09:21:22.401Z,16.43
2023-04-23T09:22:26.413Z,16.50
2023-04-23T09:23:28.678Z,16.53
2023-04-23T09:24:32.721Z,16.59
2023-04-23T09:25:35.062Z,16.61
2023-04-23T09:26:39.119Z,16.64
2023-04-23T09:27:43.025Z,16.67
2023-04-23T09:28:48.410Z,16.71
2023-04-23T09:29:50.840Z,16.70
2023-04-23T09:30:53.193Z,16.69
2023-04-23T09:31:57.211Z,16.73
2023-04-23T09:33:01.180Z,16.72
2023-04-23T09:34:03.462Z,16.78
2023-04-23T09:35:05.891Z,16.79
2023-04-23T09:36:08.321Z,16.76
2023-04-23T09:37:12.391Z,16.79
2023-04-23T09:38:14.701Z,16.81
2023-04-23T09:39:18.745Z,16.82
2023-04-23T09:41:23.527Z,16.84
2023-04-23T09:42:26.012Z,16.79
2023-04-23T09:43:30.339Z,16.81
2023-04-23T09:44:32.754Z,16.82
2023-04-23T09:47:41.527Z,16.81
2023-04-23T09:48:45.614Z,16.82
2023-04-23T09:49:48.021Z,16.81
2023-04-23T09:50:50.422Z,16.78
2023-04-23T09:52:58.349Z,16.72
2023-04-23T09:54:00.673Z,16.70
2023-04-23T09:55:03.207Z,16.72
2023-04-23T09:56:07.176Z,16.69
2023-04-23T09:58:12.036Z,16.72
2023-04-23T09:59:14.457Z,16.73
2023-04-23T10:00:17.177Z,16.74
2023-04-23T10:01:19.429Z,16.70
2023-04-23T10:02:23.533Z,16.71
2023-04-23T10:03:27.579Z,16.75
2023-04-23T10:04:29.704Z,16.74
2023-04-23T10:05:41.004Z,16.77
2023-04-23T10:06:44.098Z,16.75
2023-04-23T10:07:37.035Z,16.77
2023-04-23T10:08:41.135Z,16.78
2023-04-23T10:09:43.786Z,16.80
2023-04-23T10:10:59.883Z,16.83
2023-04-23T10:11:49.984Z,16.82
2023-04-23T10:12:55.123Z,16.81
2023-04-23T10:14:58.926Z,16.78
2023-04-23T10:17:05.184Z,16.77
2023-04-23T10:18:09.229Z,16.75
2023-04-23T10:19:11.539Z,16.76
2023-04-23T10:20:14.035Z,16.75
2023-04-23T10:21:18.174Z,16.74
2023-04-23T10:24:25.348Z,16.73
2023-04-23T10:25:27.820Z,16.70
2023-04-23T10:26:30.218Z,16.69
2023-04-23T10:27:44.492Z,16.62
2023-04-23T10:28:38.198Z,16.58
2023-04-23T10:29:40.592Z,16.59
2023-04-23T10:30:43.122Z,16.52
2023-04-23T10:31:47.226Z,16.50
2023-04-23T10:32:49.597Z,16.49
2023-04-23T10:33:59.273Z,16.47
2023-04-23T10:35:58.719Z,16.45
2023-04-23T10:38:03.572Z,16.42
2023-04-23T10:39:06.019Z,16.40
2023-04-23T10:40:08.449Z,16.39
2023-04-23T10:41:10.890Z,16.42
2023-04-23T10:42:13.308Z,16.41
2023-04-23T10:43:15.775Z,16.47
2023-04-23T10:44:24.276Z,16.48
2023-04-23T10:45:25.070Z,16.54
2023-04-23T10:46:26.346Z,16.57
2023-04-23T10:47:30.419Z,16.64
2023-04-23T10:48:34.244Z,16.68
2023-04-23T10:49:38.164Z,16.77
2023-04-23T10:50:53.216Z,16.82
2023-04-23T10:52:45.366Z,16.79
2023-04-23T10:53:47.857Z,16.78
2023-04-23T10:54:50.314Z,16.81
2023-04-23T10:55:54.396Z,16.79
2023-04-23T10:58:03.029Z,16.81
2023-04-23T10:59:06.135Z,16.84
2023-04-23T11:01:10.953Z,16.88
2023-04-23T11:02:13.545Z,16.89
2023-04-23T11:03:17.605Z,16.93
2023-04-23T11:04:19.940Z,16.90
2023-04-23T11:05:23.791Z,16.93
2023-04-23T11:06:26.166Z,16.97
2023-04-23T11:07:28.578Z,17.00
2023-04-23T11:08:31.126Z,17.03
2023-04-23T11:09:33.622Z,17.04
2023-04-23T11:10:35.968Z,17.02
2023-04-23T11:11:38.436Z,17.01
2023-04-23T11:12:42.461Z,17.00
2023-04-23T11:13:46.446Z,16.98
2023-04-23T11:14:48.838Z,16.99
2023-04-23T11:24:20.453Z,16.60
2023-04-23T11:25:22.940Z,16.62
2023-04-23T11:26:27.217Z,16.66
2023-04-23T11:27:29.753Z,16.70
2023-04-23T11:28:32.253Z,16.75
2023-04-23T11:29:36.314Z,16.83
2023-04-23T11:30:38.706Z,16.90
2023-04-23T11:31:50.787Z,16.99
2023-04-23T11:32:45.233Z,17.12
2023-04-23T11:33:49.353Z,17.22
2023-04-23T11:34:51.907Z,17.27
2023-04-23T11:35:55.965Z,17.34
2023-04-23T11:36:59.905Z,17.39
2023-04-23T11:38:03.912Z,17.45
2023-04-23T11:39:06.206Z,17.50
2023-04-23T11:40:08.678Z,17.51
2023-04-23T11:41:12.814Z,17.60
2023-04-23T11:42:15.178Z,17.65
2023-04-23T11:43:17.584Z,17.62
2023-04-23T11:44:20.028Z,17.70
2023-04-23T11:46:26.539Z,17.72
2023-04-23T11:47:28.877Z,17.73
2023-04-23T11:48:31.367Z,17.74
2023-04-23T11:49:33.719Z,17.76
2023-04-23T11:50:36.170Z,17.73
2023-04-23T11:51:38.687Z,17.68
2023-04-23T11:53:43.600Z,17.67
2023-04-23T11:54:46.243Z,17.68
2023-04-23T11:55:48.684Z,17.65
2023-04-23T11:56:51.153Z,17.64
2023-04-23T11:57:53.654Z,17.62
2023-04-23T11:58:57.672Z,17.61
2023-04-23T12:00:01.586Z,17.59
2023-04-23T12:01:03.977Z,17.60
2023-04-23T12:02:06.512Z,17.57
2023-04-23T12:03:09.108Z,17.55
2023-04-23T12:04:13.499Z,17.53
2023-04-23T12:06:19.421Z,17.51
2023-04-23T12:07:26.183Z,17.52
2023-04-23T12:08:24.337Z,17.53
2023-04-23T12:09:26.904Z,17.48
2023-04-23T12:10:29.395Z,17.47
2023-04-23T12:11:31.828Z,17.48
2023-04-23T12:12:35.835Z,17.45
2023-04-23T12:13:38.195Z,17.53
2023-04-23T12:14:40.637Z,17.56
2023-04-23T12:15:43.124Z,17.57
2023-04-23T12:16:45.603Z,17.60
2023-04-23T12:17:48.053Z,17.59
2023-04-23T12:18:52.122Z,17.57
2023-04-23T12:19:56.009Z,17.63
2023-04-23T12:20:58.318Z,17.65
2023-04-23T12:23:03.315Z,17.68
2023-04-23T12:24:07.360Z,17.77
2023-04-23T12:25:09.842Z,17.84
2023-04-23T12:26:12.295Z,17.87
2023-04-23T12:27:14.755Z,17.99
2023-04-23T12:28:18.888Z,18.15
2023-04-23T12:29:21.289Z,18.28
2023-04-23T12:30:25.421Z,18.42
2023-04-23T12:31:27.870Z,18.55
2023-04-23T12:32:31.872Z,18.73
2023-04-23T12:33:34.185Z,18.78
2023-04-23T12:34:36.622Z,18.85
2023-04-23T12:35:39.126Z,18.93
2023-04-23T12:36:41.581Z,18.95
2023-04-23T12:37:45.642Z,18.97
2023-04-23T12:38:49.622Z,18.94
2023-04-23T12:39:51.926Z,18.92
2023-04-23T12:40:54.428Z,18.93
2023-04-23T12:41:58.505Z,19.06
2023-04-23T12:43:00.854Z,19.07
2023-04-23T12:44:04.876Z,19.03
2023-04-23T12:45:08.835Z,19.00
2023-04-23T12:46:11.284Z,18.94
2023-04-23T12:47:13.666Z,18.84
2023-04-23T12:48:16.176Z,18.80
2023-04-23T12:49:18.646Z,18.75
2023-04-23T12:50:21.148Z,18.79
2023-04-23T12:51:23.596Z,18.90
2023-04-23T12:52:27.696Z,18.93
2023-04-23T12:53:30.016Z,18.99
2023-04-23T12:54:32.479Z,19.08
2023-04-23T12:55:36.503Z,19.10
2023-04-23T12:56:38.852Z,19.25
2023-04-23T12:59:46.308Z,19.13
2023-04-23T13:00:48.943Z,19.32
2023-04-23T13:01:51.589Z,19.51
2023-04-23T13:02:54.047Z,19.53
2023-04-23T13:03:58.056Z,19.54
2023-04-23T13:05:01.905Z,19.50
2023-04-23T13:06:05.788Z,19.55
2023-04-23T13:07:08.153Z,19.45
2023-04-23T13:08:10.557Z,19.33
2023-04-23T13:09:13.199Z,19.24
2023-04-23T13:10:15.584Z,19.11
2023-04-23T13:11:19.688Z,19.05
2023-04-23T13:12:22.130Z,19.01
2023-04-23T13:13:26.208Z,18.97
2023-04-23T13:14:28.560Z,18.93
2023-04-23T13:15:30.963Z,19.04
2023-04-23T13:17:37.562Z,19.03
2023-04-23T13:18:41.443Z,19.05
2023-04-23T13:19:43.900Z,19.07
2023-04-23T13:20:46.277Z,19.03
2023-04-23T13:21:48.764Z,18.98
2023-04-23T13:22:52.792Z,19.00
2023-04-23T13:23:56.711Z,18.94
2023-04-23T13:24:59.066Z,18.89
2023-04-23T13:26:01.496Z,18.84
2023-04-23T13:27:03.958Z,18.82
2023-04-23T13:28:06.432Z,18.81
2023-04-23T13:29:10.534Z,18.88
2023-04-23T13:30:12.858Z,18.89
2023-04-23T13:31:15.350Z,18.88
2023-04-23T13:32:22.054Z,18.94
2023-04-23T13:33:24.933Z,19.07
2023-04-23T13:34:28.736Z,19.30
2023-04-23T13:35:31.045Z,19.63
2023-04-23T13:36:33.509Z,19.85
2023-04-23T13:37:36.082Z,19.93
2023-04-23T13:38:38.460Z,19.96
2023-04-23T13:42:48.378Z,20.38
2023-04-23T13:42:50.124Z,20.47
2023-04-23T13:43:54.085Z,20.43
2023-04-23T13:44:56.562Z,20.48
2023-04-23T13:46:00.698Z,20.64
2023-04-23T13:48:07.022Z,20.69
2023-04-23T13:49:11.017Z,20.64
2023-04-23T13:50:13.328Z,20.66
2023-04-23T13:51:32.923Z,20.63
2023-04-23T13:52:19.889Z,20.68
2023-04-23T13:54:27.760Z,20.69
2023-04-23T13:55:30.177Z,20.72
2023-04-23T13:57:03.887Z,20.7
2023-04-23T13:58:37.505Z,20.63
2023-04-23T13:59:40.185Z,20.68
2023-04-23T14:00:42.466Z,20.7
2023-04-23T14:11:13.715Z,20.72
2023-04-23T14:14:26.096Z,20.70
2023-04-23T14:15:28.506Z,20.63
2023-04-23T14:16:32.571Z,20.59
2023-04-23T14:17:34.946Z,20.52
2023-04-23T14:18:37.377Z,20.49
2023-04-23T14:19:41.586Z,20.45
2023-04-23T14:20:45.294Z,20.37
2023-04-23T14:21:49.298Z,20.40
2023-04-23T14:22:53.217Z,20.38
2023-04-23T14:23:57.418Z,20.30
2023-04-23T14:24:59.828Z,20.21
2023-04-23T14:26:02.212Z,20.10
2023-04-23T14:27:05.747Z,19.97
2023-04-23T14:28:08.852Z,19.90
2023-04-23T14:29:12.762Z,19.80
2023-04-23T14:30:15.389Z,19.61
2023-04-23T14:31:17.671Z,19.56
2023-04-23T14:32:20.321Z,19.43
2023-04-23T14:33:22.708Z,19.34
2023-04-23T14:34:26.742Z,19.26
2023-04-23T14:35:41.757Z,19.14
2023-04-23T14:37:34.088Z,19.06
2023-04-23T14:38:36.530Z,19.08
2023-04-23T14:39:39.233Z,19.01
2023-04-23T14:41:45.757Z,18.98
2023-04-23T14:42:47.964Z,18.95
2023-04-23T14:43:50.537Z,18.92
2023-04-23T14:44:54.605Z,18.88
2023-04-23T14:45:56.984Z,18.90
2023-04-23T14:47:01.100Z,18.92
2023-04-23T14:48:03.440Z,18.86
2023-04-23T14:49:06.042Z,18.87
2023-04-23T14:50:08.569Z,18.85
2023-04-23T14:51:11.188Z,18.89
2023-04-23T14:52:13.656Z,18.90
2023-04-23T14:53:17.630Z,18.92
2023-04-23T14:54:21.614Z,18.94
2023-04-23T14:55:25.532Z,18.96
2023-04-23T14:56:27.874Z,18.97
2023-04-23T14:57:30.351Z,18.93
2023-04-23T14:58:34.476Z,18.86
2023-04-23T14:59:38.418Z,18.85
2023-04-23T15:00:40.810Z,18.83
2023-04-23T15:01:43.216Z,18.81
2023-04-23T15:03:49.806Z,18.79
2023-04-23T15:04:53.790Z,18.78
2023-04-23T15:05:56.133Z,18.77
2023-04-23T15:07:00.381Z,18.76
2023-04-23T15:08:02.744Z,18.74
2023-04-23T15:09:05.169Z,18.70
2023-04-23T15:10:07.617Z,18.65
2023-04-23T15:11:11.787Z,18.62
2023-04-23T15:13:16.522Z,18.56
2023-04-23T15:14:18.961Z,18.52
2023-04-23T15:15:27.832Z,18.49
2023-04-23T15:16:35.952Z,18.45
2023-04-23T15:17:27.880Z,18.43
2023-04-23T15:18:30.364Z,18.39
2023-04-23T15:19:32.781Z,18.33
2023-04-23T15:20:35.235Z,18.31
2023-04-23T15:21:37.680Z,18.25
2023-04-23T15:22:40.123Z,18.23
2023-04-23T15:23:44.215Z,18.21
2023-04-23T15:26:51.544Z,18.19
2023-04-23T15:27:53.965Z,18.18
2023-04-23T15:28:56.431Z,18.11
2023-04-23T15:30:00.602Z,18.10
2023-04-23T15:31:02.998Z,18.08
2023-04-23T15:32:07.126Z,18.09
2023-04-23T15:33:09.378Z,18.06
2023-04-23T15:34:13.430Z,18.01
2023-04-23T15:35:15.686Z,18.03
2023-04-23T15:36:19.802Z,17.96
2023-04-23T15:37:22.107Z,17.94
2023-04-23T15:38:24.563Z,17.90
2023-04-23T15:39:27.022Z,17.85
2023-04-23T15:40:29.547Z,17.80
2023-04-23T15:41:31.984Z,17.77
2023-04-23T15:42:34.359Z,17.73
2023-04-23T15:43:36.916Z,17.67
2023-04-23T15:44:40.959Z,17.63
2023-04-23T15:45:43.428Z,17.49
2023-04-23T15:46:47.528Z,17.37
2023-04-23T15:47:49.853Z,17.17
2023-04-23T15:48:53.842Z,17.06
2023-04-23T15:49:56.211Z,16.90
2023-04-23T15:50:58.687Z,16.74
2023-04-23T15:52:01.149Z,16.58
2023-04-23T15:53:05.184Z,16.42
2023-04-23T15:54:07.391Z,16.27
2023-04-23T15:55:09.869Z,16.07
2023-04-23T15:56:12.319Z,15.88
2023-04-23T15:57:16.380Z,15.77
2023-04-23T15:58:18.659Z,15.66
2023-04-23T15:59:21.156Z,15.51
2023-04-23T16:00:23.598Z,15.42
2023-04-23T16:01:27.774Z,15.33
2023-04-23T16:02:29.989Z,15.28
2023-04-23T16:03:34.442Z,15.23
2023-04-23T16:04:36.491Z,15.22
2023-04-23T16:04:44.528Z,15.04
2023-04-23T16:07:43.617Z,14.92
2023-04-23T16:08:46.011Z,14.83
2023-04-23T16:09:48.441Z,14.76
2023-04-23T16:10:50.970Z,14.68
2023-04-23T16:11:54.456Z,14.61
2023-04-23T16:12:56.847Z,14.53
2023-04-23T16:13:59.289Z,14.51
2023-04-23T16:15:01.793Z,14.46
2023-04-23T16:16:05.858Z,14.44
2023-04-23T16:17:08.274Z,14.40
2023-04-23T16:18:10.691Z,14.36
2023-04-23T16:18:55.727Z,14.02
2023-04-23T16:33:06.668Z,13.61
2023-04-23T16:47:21.745Z,13.38
2023-04-23T17:01:29.965Z,13.09
2023-04-23T17:15:42.613Z,12.95
2023-04-23T17:29:57.889Z,13.09
2023-04-23T17:44:08.011Z,13.27
2023-04-23T17:58:21.946Z,13.37
2023-04-23T18:12:34.795Z,12.92
2023-04-23T18:26:44.925Z,12.57
2023-04-23T18:40:57.679Z,12.41
2023-04-23T18:55:10.876Z,12.48
2023-04-23T19:09:23.193Z,12.2
2023-04-23T19:23:35.892Z,12
2023-04-23T19:37:48.459Z,11.9
2023-04-23T19:52:01.354Z,11.96
2023-04-23T20:06:14.356Z,12.06
2023-04-23T20:20:25.941Z,12.05
2023-04-23T20:34:38.387Z,11.82
2023-04-23T20:48:50.686Z,11.59
2023-04-23T21:03:02.956Z,11.35
2023-04-23T21:17:14.922Z,11.15
2023-04-23T21:31:28.086Z,11.27
2023-04-23T21:45:41.651Z,11.58
2023-04-23T21:59:54.892Z,11.66
2023-04-23T22:14:06.926Z,11.28
2023-04-23T22:28:19.212Z,10.96
2023-04-23T22:42:30.894Z,10.59
2023-04-23T22:56:42.826Z,10.36
2023-04-23T23:10:55.623Z,10.5
2023-04-23T23:25:08.604Z,10.74
2023-04-23T23:39:21.686Z,10.45
2023-04-23T23:53:32.051Z,10.62
